Ulan Bator, Mongolia
Current Conditions -  °F | °C
As of 12:30 AM on Sunday 21 Dec 2014 (Local Time) from ZMUB Reporting Station
Scattered Clouds Scattered Clouds  
Wind Chill: -18°   Ceiling: Unl
Heat Index: -18°   Visibility: 6mi
Dew Point: -21°   Wind: 0mph
Humidity: 78%   Direction: NA
Pressure: 30.27"   Gusts: NA
Location:  47.92°N, 106.91°E
Report Text: ZMUB 201630Z 00000MPS 9999 SCT100 M18/M21 Q1025 NOSIG RMK QFE660.3 76 NT
Loading
Personal Weather Stations






























Interactive Weather Map New forecast layout! Learn more

10-Day Weather Forecast

Advertisements
Track Severe Weather on mobile